sensor_id;sensor_type;location;lat;lon;timestamp;temperature;humidity
25438;DHT22;13364;49.084;9.978;2022-12-20T00:01:32;2.90;99.90
25438;DHT22;13364;49.084;9.978;2022-12-20T00:04:02;3.10;99.90
25438;DHT22;13364;49.084;9.978;2022-12-20T00:06:33;2.10;99.90
25438;DHT22;13364;49.084;9.978;2022-12-20T00:09:03;3.30;99.90
25438;DHT22;13364;49.084;9.978;2022-12-20T00:11:30;1.50;99.90
25438;DHT22;13364;49.084;9.978;2022-12-20T00:13:58;3.20;99.90
25438;DHT22;13364;49.084;9.978;2022-12-20T00:16:26;2.50;99.90
25438;DHT22;13364;49.084;9.978;2022-12-20T00:18:56;2.60;99.90
25438;DHT22;13364;49.084;9.978;2022-12-20T00:21:24;3.00;99.90
25438;DHT22;13364;49.084;9.978;2022-12-20T00:23:52;2.70;99.90
25438;DHT22;13364;49.084;9.978;2022-12-20T00:26:22;2.80;99.90
25438;DHT22;13364;49.084;9.978;2022-12-20T00:28:51;3.40;99.90
25438;DHT22;13364;49.084;9.978;2022-12-20T00:31:20;2.60;99.90
25438;DHT22;13364;49.084;9.978;2022-12-20T00:33:49;3.30;99.90
25438;DHT22;13364;49.084;9.978;2022-12-20T00:36:17;2.40;99.90
25438;DHT22;13364;49.084;9.978;2022-12-20T00:38:46;3.00;99.90
25438;DHT22;13364;49.084;9.978;2022-12-20T00:41:16;3.00;99.90
25438;DHT22;13364;49.084;9.978;2022-12-20T00:43:44;3.00;99.90
25438;DHT22;13364;49.084;9.978;2022-12-20T00:46:12;3.00;99.90
25438;DHT22;13364;49.084;9.978;2022-12-20T00:48:40;2.80;99.90
25438;DHT22;13364;49.084;9.978;2022-12-20T00:51:10;2.70;99.90
25438;DHT22;13364;49.084;9.978;2022-12-20T00:53:38;3.10;99.90
25438;DHT22;13364;49.084;9.978;2022-12-20T00:56:06;2.20;99.90
25438;DHT22;13364;49.084;9.978;2022-12-20T00:58:36;1.30;99.90
25438;DHT22;13364;49.084;9.978;2022-12-20T01:01:04;2.30;99.90
25438;DHT22;13364;49.084;9.978;2022-12-20T01:03:32;1.30;99.90
25438;DHT22;13364;49.084;9.978;2022-12-20T01:06:01;2.30;99.90
25438;DHT22;13364;49.084;9.978;2022-12-20T01:08:30;2.80;99.90
25438;DHT22;13364;49.084;9.978;2022-12-20T01:11:06;3.00;99.90
25438;DHT22;13364;49.084;9.978;2022-12-20T01:13:35;1.20;99.90
25438;DHT22;13364;49.084;9.978;2022-12-20T01:16:07;2.70;99.90
25438;DHT22;13364;49.084;9.978;2022-12-20T01:18:35;1.20;99.90
25438;DHT22;13364;49.084;9.978;2022-12-20T01:21:04;3.20;99.90
25438;DHT22;13364;49.084;9.978;2022-12-20T01:23:31;1.10;99.90
25438;DHT22;13364;49.084;9.978;2022-12-20T01:26:04;1.60;99.90
25438;DHT22;13364;49.084;9.978;2022-12-20T01:28:31;1.20;99.90
25438;DHT22;13364;49.084;9.978;2022-12-20T01:30:59;1.40;99.90
25438;DHT22;13364;49.084;9.978;2022-12-20T01:33:26;3.00;99.90
25438;DHT22;13364;49.084;9.978;2022-12-20T01:35:59;1.80;99.90
25438;DHT22;13364;49.084;9.978;2022-12-20T01:38:27;2.80;99.90
25438;DHT22;13364;49.084;9.978;2022-12-20T01:40:55;1.10;99.90
25438;DHT22;13364;49.084;9.978;2022-12-20T01:43:24;2.90;99.90
25438;DHT22;13364;49.084;9.978;2022-12-20T01:45:51;2.10;99.90
25438;DHT22;13364;49.084;9.978;2022-12-20T01:48:24;2.60;99.90
25438;DHT22;13364;49.084;9.978;2022-12-20T01:50:52;2.30;99.90
25438;DHT22;13364;49.084;9.978;2022-12-20T01:53:21;2.30;99.90
25438;DHT22;13364;49.084;9.978;2022-12-20T01:55:49;2.00;99.90
25438;DHT22;13364;49.084;9.978;2022-12-20T01:58:17;2.80;99.90
25438;DHT22;13364;49.084;9.978;2022-12-20T02:00:46;2.20;99.90
25438;DHT22;13364;49.084;9.978;2022-12-20T02:03:14;3.10;99.90
25438;DHT22;13364;49.084;9.978;2022-12-20T02:05:44;2.90;99.90
25438;DHT22;13364;49.084;9.978;2022-12-20T02:08:13;2.50;99.90
25438;DHT22;13364;49.084;9.978;2022-12-20T02:16:33;1.30;99.90
25438;DHT22;13364;49.084;9.978;2022-12-20T02:25:12;1.20;99.90
25438;DHT22;13364;49.084;9.978;2022-12-20T02:27:45;2.80;99.90
25438;DHT22;13364;49.084;9.978;2022-12-20T02:30:21;2.70;99.90
25438;DHT22;13364;49.084;9.978;2022-12-20T02:33:01;2.40;99.90
25438;DHT22;13364;49.084;9.978;2022-12-20T02:35:33;1.20;99.90
25438;DHT22;13364;49.084;9.978;2022-12-20T02:38:23;1.90;99.90
25438;DHT22;13364;49.084;9.978;2022-12-20T02:40:55;2.80;99.90
25438;DHT22;13364;49.084;9.978;2022-12-20T02:43:24;2.90;99.90
25438;DHT22;13364;49.084;9.978;2022-12-20T02:46:12;2.40;99.90
25438;DHT22;13364;49.084;9.978;2022-12-20T02:48:41;1.80;99.90
25438;DHT22;13364;49.084;9.978;2022-12-20T02:51:10;2.30;99.90
25438;DHT22;13364;49.084;9.978;2022-12-20T02:53:38;2.40;99.90
25438;DHT22;13364;49.084;9.978;2022-12-20T02:56:17;1.70;99.90
25438;DHT22;13364;49.084;9.978;2022-12-20T03:01:35;1.30;99.90
25438;DHT22;13364;49.084;9.978;2022-12-20T03:04:04;2.80;99.90
25438;DHT22;13364;49.084;9.978;2022-12-20T03:06:32;2.30;99.90
25438;DHT22;13364;49.084;9.978;2022-12-20T03:09:00;2.80;99.90
25438;DHT22;13364;49.084;9.978;2022-12-20T03:11:30;3.00;99.90
25438;DHT22;13364;49.084;9.978;2022-12-20T03:13:57;2.40;99.90
25438;DHT22;13364;49.084;9.978;2022-12-20T03:16:24;3.00;99.90
25438;DHT22;13364;49.084;9.978;2022-12-20T03:18:51;2.90;99.90
25438;DHT22;13364;49.084;9.978;2022-12-20T03:21:36;2.40;99.90
25438;DHT22;13364;49.084;9.978;2022-12-20T03:24:03;2.70;99.90
25438;DHT22;13364;49.084;9.978;2022-12-20T03:26:30;1.70;99.90
25438;DHT22;13364;49.084;9.978;2022-12-20T03:28:59;3.70;99.90
25438;DHT22;13364;49.084;9.978;2022-12-20T03:31:27;3.50;99.90
25438;DHT22;13364;49.084;9.978;2022-12-20T03:33:54;2.90;99.90
25438;DHT22;13364;49.084;9.978;2022-12-20T03:36:21;3.20;99.90
25438;DHT22;13364;49.084;9.978;2022-12-20T03:38:57;1.50;99.90
25438;DHT22;13364;49.084;9.978;2022-12-20T03:41:26;3.40;99.90
25438;DHT22;13364;49.084;9.978;2022-12-20T03:43:53;3.20;99.90
25438;DHT22;13364;49.084;9.978;2022-12-20T03:46:21;3.70;99.90
25438;DHT22;13364;49.084;9.978;2022-12-20T03:48:49;3.80;99.90
25438;DHT22;13364;49.084;9.978;2022-12-20T03:51:16;3.90;99.90
25438;DHT22;13364;49.084;9.978;2022-12-20T03:53:44;3.40;99.90
25438;DHT22;13364;49.084;9.978;2022-12-20T03:56:12;3.10;99.90
25438;DHT22;13364;49.084;9.978;2022-12-20T03:58:41;3.20;99.90
25438;DHT22;13364;49.084;9.978;2022-12-20T04:01:18;4.30;99.90
25438;DHT22;13364;49.084;9.978;2022-12-20T04:03:46;4.80;99.90
25438;DHT22;13364;49.084;9.978;2022-12-20T04:06:14;3.50;99.90
25438;DHT22;13364;49.084;9.978;2022-12-20T04:08:41;3.60;99.90
25438;DHT22;13364;49.084;9.978;2022-12-20T04:11:10;5.40;99.90
25438;DHT22;13364;49.084;9.978;2022-12-20T04:13:51;3.90;99.90
25438;DHT22;13364;49.084;9.978;2022-12-20T04:16:26;4.30;99.90
25438;DHT22;13364;49.084;9.978;2022-12-20T04:18:54;3.60;99.90
25438;DHT22;13364;49.084;9.978;2022-12-20T04:21:27;5.10;99.90
25438;DHT22;13364;49.084;9.978;2022-12-20T04:23:57;3.70;99.90
25438;DHT22;13364;49.084;9.978;2022-12-20T04:26:33;5.10;99.90
25438;DHT22;13364;49.084;9.978;2022-12-20T04:29:02;5.40;99.90
25438;DHT22;13364;49.084;9.978;2022-12-20T04:31:30;4.50;99.90
25438;DHT22;13364;49.084;9.978;2022-12-20T04:33:58;4.90;99.90
25438;DHT22;13364;49.084;9.978;2022-12-20T04:36:27;4.60;99.90
25438;DHT22;13364;49.084;9.978;2022-12-20T04:38:56;3.20;99.90
25438;DHT22;13364;49.084;9.978;2022-12-20T04:41:23;3.70;99.90
25438;DHT22;13364;49.084;9.978;2022-12-20T04:43:56;4.90;99.90
25438;DHT22;13364;49.084;9.978;2022-12-20T04:46:32;3.00;99.90
25438;DHT22;13364;49.084;9.978;2022-12-20T04:49:00;3.00;99.90
25438;DHT22;13364;49.084;9.978;2022-12-20T04:51:30;4.20;99.90
25438;DHT22;13364;49.084;9.978;2022-12-20T04:53:57;3.10;99.90
25438;DHT22;13364;49.084;9.978;2022-12-20T04:56:39;3.60;99.90
25438;DHT22;13364;49.084;9.978;2022-12-20T04:59:09;3.40;99.90
25438;DHT22;13364;49.084;9.978;2022-12-20T05:01:40;4.30;99.90
25438;DHT22;13364;49.084;9.978;2022-12-20T05:04:07;4.30;99.90
25438;DHT22;13364;49.084;9.978;2022-12-20T05:06:36;3.80;99.90
25438;DHT22;13364;49.084;9.978;2022-12-20T05:09:03;3.00;99.90
25438;DHT22;13364;49.084;9.978;2022-12-20T05:11:31;2.60;99.90
25438;DHT22;13364;49.084;9.978;2022-12-20T05:13:59;3.20;99.90
25438;DHT22;13364;49.084;9.978;2022-12-20T05:16:27;3.90;99.90
25438;DHT22;13364;49.084;9.978;2022-12-20T05:18:54;3.80;99.90
25438;DHT22;13364;49.084;9.978;2022-12-20T05:21:21;3.90;99.90
25438;DHT22;13364;49.084;9.978;2022-12-20T05:24:08;3.50;99.90
25438;DHT22;13364;49.084;9.978;2022-12-20T05:27:18;2.60;99.90
25438;DHT22;13364;49.084;9.978;2022-12-20T05:29:45;3.30;99.90
25438;DHT22;13364;49.084;9.978;2022-12-20T05:32:13;3.80;99.90
25438;DHT22;13364;49.084;9.978;2022-12-20T05:34:42;3.10;99.90
25438;DHT22;13364;49.084;9.978;2022-12-20T05:37:09;3.60;99.90
25438;DHT22;13364;49.084;9.978;2022-12-20T05:39:38;3.20;99.90
25438;DHT22;13364;49.084;9.978;2022-12-20T05:42:11;3.80;99.90
25438;DHT22;13364;49.084;9.978;2022-12-20T05:44:38;3.20;99.90
25438;DHT22;13364;49.084;9.978;2022-12-20T05:47:05;3.80;99.90
25438;DHT22;13364;49.084;9.978;2022-12-20T05:49:35;3.00;99.90
25438;DHT22;13364;49.084;9.978;2022-12-20T05:52:04;3.00;99.90
25438;DHT22;13364;49.084;9.978;2022-12-20T05:54:33;3.50;99.90
25438;DHT22;13364;49.084;9.978;2022-12-20T05:57:15;4.30;99.90
25438;DHT22;13364;49.084;9.978;2022-12-20T05:59:42;4.30;99.90
25438;DHT22;13364;49.084;9.978;2022-12-20T06:02:20;4.00;99.90
25438;DHT22;13364;49.084;9.978;2022-12-20T06:04:51;2.50;99.90
25438;DHT22;13364;49.084;9.978;2022-12-20T06:07:20;3.20;99.90
25438;DHT22;13364;49.084;9.978;2022-12-20T06:09:52;2.50;99.90
25438;DHT22;13364;49.084;9.978;2022-12-20T06:12:23;2.90;99.90
25438;DHT22;13364;49.084;9.978;2022-12-20T06:14:51;2.50;99.90
25438;DHT22;13364;49.084;9.978;2022-12-20T06:17:18;4.10;99.90
25438;DHT22;13364;49.084;9.978;2022-12-20T06:19:47;3.30;99.90
25438;DHT22;13364;49.084;9.978;2022-12-20T06:22:15;4.10;99.90
25438;DHT22;13364;49.084;9.978;2022-12-20T06:24:55;3.70;99.90
25438;DHT22;13364;49.084;9.978;2022-12-20T06:27:26;2.90;99.90
25438;DHT22;13364;49.084;9.978;2022-12-20T06:30:04;2.40;99.90
25438;DHT22;13364;49.084;9.978;2022-12-20T06:32:43;2.50;99.90
25438;DHT22;13364;49.084;9.978;2022-12-20T06:35:11;4.10;99.90
25438;DHT22;13364;49.084;9.978;2022-12-20T06:37:40;4.20;99.90
25438;DHT22;13364;49.084;9.978;2022-12-20T06:40:09;3.70;99.90
25438;DHT22;13364;49.084;9.978;2022-12-20T06:42:36;2.50;99.90
25438;DHT22;13364;49.084;9.978;2022-12-20T06:45:05;2.50;99.90
25438;DHT22;13364;49.084;9.978;2022-12-20T06:47:34;2.50;99.90
25438;DHT22;13364;49.084;9.978;2022-12-20T06:50:03;2.80;99.90
25438;DHT22;13364;49.084;9.978;2022-12-20T06:52:30;2.50;99.90
25438;DHT22;13364;49.084;9.978;2022-12-20T06:54:58;3.90;99.90
25438;DHT22;13364;49.084;9.978;2022-12-20T06:57:26;2.50;99.90
25438;DHT22;13364;49.084;9.978;2022-12-20T06:59:53;3.50;99.90
25438;DHT22;13364;49.084;9.978;2022-12-20T07:02:20;4.10;99.90
25438;DHT22;13364;49.084;9.978;2022-12-20T07:04:53;3.90;99.90
25438;DHT22;13364;49.084;9.978;2022-12-20T07:07:20;3.50;99.90
25438;DHT22;13364;49.084;9.978;2022-12-20T07:09:47;4.20;99.90
25438;DHT22;13364;49.084;9.978;2022-12-20T07:12:14;2.80;99.90
25438;DHT22;13364;49.084;9.978;2022-12-20T07:14:41;4.10;99.90
25438;DHT22;13364;49.084;9.978;2022-12-20T07:17:09;4.10;99.90
25438;DHT22;13364;49.084;9.978;2022-12-20T07:19:36;3.40;99.90
25438;DHT22;13364;49.084;9.978;2022-12-20T07:22:04;2.40;99.90
25438;DHT22;13364;49.084;9.978;2022-12-20T07:24:32;3.10;99.90
25438;DHT22;13364;49.084;9.978;2022-12-20T07:26:59;3.90;99.90
25438;DHT22;13364;49.084;9.978;2022-12-20T07:29:27;2.50;99.90
25438;DHT22;13364;49.084;9.978;2022-12-20T07:31:54;2.40;99.90
25438;DHT22;13364;49.084;9.978;2022-12-20T07:34:22;3.60;99.90
25438;DHT22;13364;49.084;9.978;2022-12-20T07:36:49;2.40;99.90
25438;DHT22;13364;49.084;9.978;2022-12-20T07:39:16;3.00;99.90
25438;DHT22;13364;49.084;9.978;2022-12-20T07:41:47;4.20;99.90
25438;DHT22;13364;49.084;9.978;2022-12-20T07:44:15;4.30;99.90
25438;DHT22;13364;49.084;9.978;2022-12-20T07:46:42;3.90;99.90
25438;DHT22;13364;49.084;9.978;2022-12-20T07:49:09;4.30;99.90
25438;DHT22;13364;49.084;9.978;2022-12-20T07:51:46;4.10;99.90
25438;DHT22;13364;49.084;9.978;2022-12-20T07:54:19;4.20;99.90
25438;DHT22;13364;49.084;9.978;2022-12-20T07:56:51;3.60;99.90
25438;DHT22;13364;49.084;9.978;2022-12-20T07:59:22;3.00;99.90
25438;DHT22;13364;49.084;9.978;2022-12-20T08:01:51;4.40;99.90
25438;DHT22;13364;49.084;9.978;2022-12-20T08:04:22;4.20;99.90
25438;DHT22;13364;49.084;9.978;2022-12-20T08:06:52;4.20;99.90
25438;DHT22;13364;49.084;9.978;2022-12-20T08:09:23;3.60;99.90
25438;DHT22;13364;49.084;9.978;2022-12-20T08:11:51;4.30;99.90
25438;DHT22;13364;49.084;9.978;2022-12-20T08:14:19;2.90;99.90
25438;DHT22;13364;49.084;9.978;2022-12-20T08:16:46;3.70;99.90
25438;DHT22;13364;49.084;9.978;2022-12-20T08:19:13;3.90;99.90
25438;DHT22;13364;49.084;9.978;2022-12-20T08:21:40;3.30;99.90
25438;DHT22;13364;49.084;9.978;2022-12-20T08:24:08;4.20;99.90
25438;DHT22;13364;49.084;9.978;2022-12-20T08:26:39;2.90;99.90
25438;DHT22;13364;49.084;9.978;2022-12-20T08:29:07;3.90;99.90
25438;DHT22;13364;49.084;9.978;2022-12-20T08:31:38;4.20;99.90
25438;DHT22;13364;49.084;9.978;2022-12-20T08:34:15;3.90;99.90
25438;DHT22;13364;49.084;9.978;2022-12-20T08:36:42;3.60;99.90
25438;DHT22;13364;49.084;9.978;2022-12-20T08:39:09;2.80;99.90
25438;DHT22;13364;49.084;9.978;2022-12-20T08:41:37;4.40;99.90
25438;DHT22;13364;49.084;9.978;2022-12-20T08:44:05;2.80;99.90
25438;DHT22;13364;49.084;9.978;2022-12-20T08:46:32;4.60;99.90
25438;DHT22;13364;49.084;9.978;2022-12-20T08:48:59;2.90;99.90
25438;DHT22;13364;49.084;9.978;2022-12-20T08:51:26;2.90;99.90
25438;DHT22;13364;49.084;9.978;2022-12-20T08:53:55;3.00;99.90
25438;DHT22;13364;49.084;9.978;2022-12-20T08:56:22;3.70;99.90
25438;DHT22;13364;49.084;9.978;2022-12-20T08:58:50;4.50;99.90
25438;DHT22;13364;49.084;9.978;2022-12-20T09:01:18;3.40;99.90
25438;DHT22;13364;49.084;9.978;2022-12-20T09:03:47;4.60;99.90
25438;DHT22;13364;49.084;9.978;2022-12-20T09:06:20;3.00;99.90
25438;DHT22;13364;49.084;9.978;2022-12-20T09:08:48;2.90;99.90
25438;DHT22;13364;49.084;9.978;2022-12-20T09:11:18;2.90;99.90
25438;DHT22;13364;49.084;9.978;2022-12-20T09:13:47;2.90;99.90
25438;DHT22;13364;49.084;9.978;2022-12-20T09:16:20;2.90;99.90
25438;DHT22;13364;49.084;9.978;2022-12-20T09:18:51;4.50;99.90
25438;DHT22;13364;49.084;9.978;2022-12-20T09:21:23;4.20;99.90
25438;DHT22;13364;49.084;9.978;2022-12-20T09:23:51;4.80;99.90
25438;DHT22;13364;49.084;9.978;2022-12-20T09:26:20;3.00;99.90
25438;DHT22;13364;49.084;9.978;2022-12-20T09:28:48;5.10;99.90
25438;DHT22;13364;49.084;9.978;2022-12-20T09:31:20;4.80;99.90
25438;DHT22;13364;49.084;9.978;2022-12-20T09:33:48;4.40;99.90
25438;DHT22;13364;49.084;9.978;2022-12-20T09:36:17;4.30;99.90
25438;DHT22;13364;49.084;9.978;2022-12-20T09:38:45;4.90;99.90
25438;DHT22;13364;49.084;9.978;2022-12-20T09:41:33;3.30;99.90
25438;DHT22;13364;49.084;9.978;2022-12-20T09:44:13;5.40;99.90
25438;DHT22;13364;49.084;9.978;2022-12-20T09:46:42;3.40;99.90
25438;DHT22;13364;49.084;9.978;2022-12-20T09:49:14;3.40;99.90
25438;DHT22;13364;49.084;9.978;2022-12-20T09:59:55;3.60;99.90
25438;DHT22;13364;49.084;9.978;2022-12-20T10:02:28;5.20;99.90
25438;DHT22;13364;49.084;9.978;2022-12-20T10:08:43;3.60;99.90
25438;DHT22;13364;49.084;9.978;2022-12-20T10:17:07;5.70;99.90
25438;DHT22;13364;49.084;9.978;2022-12-20T10:19:57;5.00;99.90
25438;DHT22;13364;49.084;9.978;2022-12-20T10:25:17;3.80;99.90
25438;DHT22;13364;49.084;9.978;2022-12-20T10:27:46;3.90;99.90
25438;DHT22;13364;49.084;9.978;2022-12-20T10:30:16;5.80;99.90
25438;DHT22;13364;49.084;9.978;2022-12-20T10:32:45;3.90;99.90
25438;DHT22;13364;49.084;9.978;2022-12-20T10:35:44;5.00;99.90
25438;DHT22;13364;49.084;9.978;2022-12-20T10:38:11;6.00;99.90
25438;DHT22;13364;49.084;9.978;2022-12-20T10:40:49;5.20;99.90
25438;DHT22;13364;49.084;9.978;2022-12-20T10:43:47;4.00;99.90
25438;DHT22;13364;49.084;9.978;2022-12-20T10:46:15;5.50;99.90
25438;DHT22;13364;49.084;9.978;2022-12-20T10:48:45;5.90;99.90
25438;DHT22;13364;49.084;9.978;2022-12-20T10:51:16;5.90;99.90
25438;DHT22;13364;49.084;9.978;2022-12-20T10:53:57;4.10;99.90
25438;DHT22;13364;49.084;9.978;2022-12-20T10:56:33;4.10;99.90
25438;DHT22;13364;49.084;9.978;2022-12-20T10:59:32;4.20;99.90
25438;DHT22;13364;49.084;9.978;2022-12-20T11:02:02;4.30;99.90
25438;DHT22;13364;49.084;9.978;2022-12-20T11:04:34;5.50;99.90
25438;DHT22;13364;49.084;9.978;2022-12-20T11:07:20;4.40;99.90
25438;DHT22;13364;49.084;9.978;2022-12-20T11:09:56;5.70;99.90
25438;DHT22;13364;49.084;9.978;2022-12-20T11:12:23;4.50;99.90
25438;DHT22;13364;49.084;9.978;2022-12-20T11:15:10;6.00;99.90
25438;DHT22;13364;49.084;9.978;2022-12-20T11:17:44;4.70;99.90
25438;DHT22;13364;49.084;9.978;2022-12-20T11:20:24;4.80;99.90
25438;DHT22;13364;49.084;9.978;2022-12-20T11:27:05;4.90;99.90
25438;DHT22;13364;49.084;9.978;2022-12-20T11:35:24;5.10;99.90
25438;DHT22;13364;49.084;9.978;2022-12-20T11:41:25;5.10;99.90
25438;DHT22;13364;49.084;9.978;2022-12-20T11:44:43;5.10;99.90
25438;DHT22;13364;49.084;9.978;2022-12-20T11:47:26;5.80;99.90
25438;DHT22;13364;49.084;9.978;2022-12-20T11:58:03;5.10;99.90
25438;DHT22;13364;49.084;9.978;2022-12-20T12:01:02;5.10;99.90
25438;DHT22;13364;49.084;9.978;2022-12-20T12:03:36;5.10;99.90
25438;DHT22;13364;49.084;9.978;2022-12-20T12:06:10;6.60;99.90
25438;DHT22;13364;49.084;9.978;2022-12-20T12:08:43;5.50;99.90
25438;DHT22;13364;49.084;9.978;2022-12-20T12:12:02;6.50;99.90
25438;DHT22;13364;49.084;9.978;2022-12-20T12:16:59;6.20;99.90
25438;DHT22;13364;49.084;9.978;2022-12-20T12:19:35;5.30;99.90
25438;DHT22;13364;49.084;9.978;2022-12-20T12:22:09;5.30;99.90
25438;DHT22;13364;49.084;9.978;2022-12-20T12:24:42;6.20;99.90
25438;DHT22;13364;49.084;9.978;2022-12-20T12:27:21;6.40;99.90
25438;DHT22;13364;49.084;9.978;2022-12-20T12:29:49;6.70;99.90
25438;DHT22;13364;49.084;9.978;2022-12-20T12:46:47;5.30;99.90
25438;DHT22;13364;49.084;9.978;2022-12-20T12:49:21;5.30;99.90
25438;DHT22;13364;49.084;9.978;2022-12-20T12:51:51;6.10;99.90
25438;DHT22;13364;49.084;9.978;2022-12-20T12:54:26;6.20;99.90
25438;DHT22;13364;49.084;9.978;2022-12-20T12:57:16;5.30;99.90
25438;DHT22;13364;49.084;9.978;2022-12-20T12:59:44;5.30;99.90
25438;DHT22;13364;49.084;9.978;2022-12-20T13:20:38;5.40;99.90
25438;DHT22;13364;49.084;9.978;2022-12-20T13:25:46;5.40;99.90
25438;DHT22;13364;49.084;9.978;2022-12-20T13:33:41;7.20;99.90
25438;DHT22;13364;49.084;9.978;2022-12-20T13:41:34;5.50;99.90
25438;DHT22;13364;49.084;9.978;2022-12-20T13:49:26;7.10;99.90
25438;DHT22;13364;49.084;9.978;2022-12-20T13:54:54;5.70;99.90
25438;DHT22;13364;49.084;9.978;2022-12-20T13:57:31;7.30;99.90
25438;DHT22;13364;49.084;9.978;2022-12-20T14:00:02;6.60;99.90
25438;DHT22;13364;49.084;9.978;2022-12-20T14:02:38;5.70;99.90
25438;DHT22;13364;49.084;9.978;2022-12-20T14:05:25;6.90;99.90
25438;DHT22;13364;49.084;9.978;2022-12-20T14:08:06;5.70;99.90
25438;DHT22;13364;49.084;9.978;2022-12-20T14:10:34;5.60;99.90
25438;DHT22;13364;49.084;9.978;2022-12-20T14:13:02;7.40;99.90
25438;DHT22;13364;49.084;9.978;2022-12-20T14:15:31;7.20;99.90
25438;DHT22;13364;49.084;9.978;2022-12-20T14:18:24;5.50;99.90
25438;DHT22;13364;49.084;9.978;2022-12-20T14:20:59;5.50;99.90
25438;DHT22;13364;49.084;9.978;2022-12-20T14:23:47;7.20;99.90
25438;DHT22;13364;49.084;9.978;2022-12-20T14:26:21;6.90;99.90
25438;DHT22;13364;49.084;9.978;2022-12-20T14:28:52;7.30;99.90
25438;DHT22;13364;49.084;9.978;2022-12-20T14:34:05;5.30;99.90
25438;DHT22;13364;49.084;9.978;2022-12-20T14:36:33;5.30;99.90
25438;DHT22;13364;49.084;9.978;2022-12-20T14:39:24;5.30;99.90
25438;DHT22;13364;49.084;9.978;2022-12-20T14:41:57;5.30;99.90
25438;DHT22;13364;49.084;9.978;2022-12-20T14:44:27;5.40;99.90
25438;DHT22;13364;49.084;9.978;2022-12-20T14:46:56;5.40;99.90
25438;DHT22;13364;49.084;9.978;2022-12-20T14:49:34;5.40;99.90
25438;DHT22;13364;49.084;9.978;2022-12-20T14:52:15;5.40;99.90
25438;DHT22;13364;49.084;9.978;2022-12-20T14:54:47;5.40;99.90
25438;DHT22;13364;49.084;9.978;2022-12-20T15:00:24;5.30;99.90
25438;DHT22;13364;49.084;9.978;2022-12-20T15:03:01;5.40;99.90
25438;DHT22;13364;49.084;9.978;2022-12-20T15:08:20;5.40;99.90
25438;DHT22;13364;49.084;9.978;2022-12-20T15:10:59;5.40;99.90
25438;DHT22;13364;49.084;9.978;2022-12-20T15:13:32;5.30;99.90
25438;DHT22;13364;49.084;9.978;2022-12-20T15:16:02;5.30;99.90
25438;DHT22;13364;49.084;9.978;2022-12-20T15:18:30;5.70;99.90
25438;DHT22;13364;49.084;9.978;2022-12-20T15:21:03;6.10;99.90
25438;DHT22;13364;49.084;9.978;2022-12-20T15:23:31;7.00;99.90
25438;DHT22;13364;49.084;9.978;2022-12-20T15:25:58;7.00;99.90
25438;DHT22;13364;49.084;9.978;2022-12-20T15:32:13;5.10;99.90
25438;DHT22;13364;49.084;9.978;2022-12-20T15:34:41;5.10;99.90
25438;DHT22;13364;49.084;9.978;2022-12-20T15:37:13;5.10;99.90
25438;DHT22;13364;49.084;9.978;2022-12-20T15:39:45;5.10;99.90
25438;DHT22;13364;49.084;9.978;2022-12-20T15:42:15;5.00;99.90
25438;DHT22;13364;49.084;9.978;2022-12-20T15:44:43;5.00;99.90
25438;DHT22;13364;49.084;9.978;2022-12-20T15:47:15;5.00;99.90
25438;DHT22;13364;49.084;9.978;2022-12-20T15:49:43;6.60;99.90
25438;DHT22;13364;49.084;9.978;2022-12-20T15:52:20;6.30;99.90
25438;DHT22;13364;49.084;9.978;2022-12-20T15:54:48;6.10;99.90
25438;DHT22;13364;49.084;9.978;2022-12-20T15:57:15;5.80;99.90
25438;DHT22;13364;49.084;9.978;2022-12-20T15:59:42;6.50;99.90
25438;DHT22;13364;49.084;9.978;2022-12-20T16:02:37;6.30;99.90
25438;DHT22;13364;49.084;9.978;2022-12-20T16:05:04;6.50;99.90
25438;DHT22;13364;49.084;9.978;2022-12-20T16:07:32;4.70;99.90
25438;DHT22;13364;49.084;9.978;2022-12-20T16:09:59;4.70;99.90
25438;DHT22;13364;49.084;9.978;2022-12-20T16:12:33;4.60;99.90
25438;DHT22;13364;49.084;9.978;2022-12-20T16:15:01;4.60;99.90
25438;DHT22;13364;49.084;9.978;2022-12-20T16:17:34;6.20;99.90
25438;DHT22;13364;49.084;9.978;2022-12-20T16:20:01;6.10;99.90
25438;DHT22;13364;49.084;9.978;2022-12-20T16:22:28;4.50;99.90
25438;DHT22;13364;49.084;9.978;2022-12-20T16:24:55;5.60;99.90
25438;DHT22;13364;49.084;9.978;2022-12-20T16:27:22;5.50;99.90
25438;DHT22;13364;49.084;9.978;2022-12-20T16:29:49;4.40;99.90
25438;DHT22;13364;49.084;9.978;2022-12-20T16:32:18;5.80;99.90
25438;DHT22;13364;49.084;9.978;2022-12-20T16:34:48;6.40;99.90
25438;DHT22;13364;49.084;9.978;2022-12-20T16:37:17;4.30;99.90
25438;DHT22;13364;49.084;9.978;2022-12-20T16:39:45;5.50;99.90
25438;DHT22;13364;49.084;9.978;2022-12-20T16:42:17;4.30;99.90
25438;DHT22;13364;49.084;9.978;2022-12-20T16:44:53;4.20;99.90
25438;DHT22;13364;49.084;9.978;2022-12-20T16:47:20;5.40;99.90
25438;DHT22;13364;49.084;9.978;2022-12-20T16:49:47;5.30;99.90
25438;DHT22;13364;49.084;9.978;2022-12-20T16:52:20;6.10;99.90
25438;DHT22;13364;49.084;9.978;2022-12-20T16:54:48;5.00;99.90
25438;DHT22;13364;49.084;9.978;2022-12-20T16:57:15;5.70;99.90
25438;DHT22;13364;49.084;9.978;2022-12-20T16:59:42;4.90;99.90
25438;DHT22;13364;49.084;9.978;2022-12-20T17:02:25;5.60;99.90
25438;DHT22;13364;49.084;9.978;2022-12-20T17:04:53;4.20;99.90
25438;DHT22;13364;49.084;9.978;2022-12-20T17:07:20;6.20;99.90
25438;DHT22;13364;49.084;9.978;2022-12-20T17:09:48;5.20;99.90
25438;DHT22;13364;49.084;9.978;2022-12-20T17:12:33;5.40;99.90
25438;DHT22;13364;49.084;9.978;2022-12-20T17:15:00;5.00;99.90
25438;DHT22;13364;49.084;9.978;2022-12-20T17:17:27;4.20;99.90
25438;DHT22;13364;49.084;9.978;2022-12-20T17:19:54;5.90;99.90
25438;DHT22;13364;49.084;9.978;2022-12-20T17:22:21;4.20;99.90
25438;DHT22;13364;49.084;9.978;2022-12-20T17:25:07;5.20;99.90
25438;DHT22;13364;49.084;9.978;2022-12-20T17:27:37;4.30;99.90
25438;DHT22;13364;49.084;9.978;2022-12-20T17:30:05;5.80;99.90
25438;DHT22;13364;49.084;9.978;2022-12-20T17:32:32;4.30;99.90
25438;DHT22;13364;49.084;9.978;2022-12-20T17:34:59;5.60;99.90
25438;DHT22;13364;49.084;9.978;2022-12-20T17:37:26;6.10;99.90
25438;DHT22;13364;49.084;9.978;2022-12-20T17:39:53;5.70;99.90
25438;DHT22;13364;49.084;9.978;2022-12-20T17:42:20;4.90;99.90
25438;DHT22;13364;49.084;9.978;2022-12-20T17:44:56;6.50;99.90
25438;DHT22;13364;49.084;9.978;2022-12-20T17:47:23;5.70;99.90
25438;DHT22;13364;49.084;9.978;2022-12-20T17:49:51;5.80;99.90
25438;DHT22;13364;49.084;9.978;2022-12-20T17:52:18;5.80;99.90
25438;DHT22;13364;49.084;9.978;2022-12-20T17:54:47;5.30;99.90
25438;DHT22;13364;49.084;9.978;2022-12-20T17:57:15;5.60;99.90
25438;DHT22;13364;49.084;9.978;2022-12-20T17:59:42;5.40;99.90
25438;DHT22;13364;49.084;9.978;2022-12-20T18:02:28;5.90;99.90
25438;DHT22;13364;49.084;9.978;2022-12-20T18:04:56;5.90;99.90
25438;DHT22;13364;49.084;9.978;2022-12-20T18:07:23;5.60;99.90
25438;DHT22;13364;49.084;9.978;2022-12-20T18:09:50;5.70;99.90
25438;DHT22;13364;49.084;9.978;2022-12-20T18:12:17;5.50;99.90
25438;DHT22;13364;49.084;9.978;2022-12-20T18:14:46;5.40;99.90
25438;DHT22;13364;49.084;9.978;2022-12-20T18:17:13;5.80;99.90